createdAt,value
2022-12-22T00:00:17.079Z,12.60
2022-12-22T00:05:40.366Z,12.75
2022-12-22T00:11:03.152Z,14.20
2022-12-22T00:16:24.613Z,17.45
2022-12-22T00:21:48.038Z,12.50
2022-12-22T00:27:10.764Z,12.77
2022-12-22T00:32:33.234Z,14.90
2022-12-22T00:37:56.229Z,12.80
2022-12-22T00:43:18.700Z,13.02
2022-12-22T00:48:43.680Z,14.88
2022-12-22T00:54:04.659Z,16.15
2022-12-22T00:59:29.657Z,14.93
2022-12-22T01:04:50.612Z,13.57
2022-12-22T01:10:12.089Z,21.80
2022-12-22T01:15:37.547Z,19.17
2022-12-22T01:20:58.680Z,15.23
2022-12-22T01:26:20.159Z,16.63
2022-12-22T01:31:47.281Z,16.33
2022-12-22T01:37:08.186Z,15.57
2022-12-22T01:42:31.362Z,16.15
2022-12-22T01:47:53.915Z,17.08
2022-12-22T01:53:19.819Z,19.60
2022-12-22T01:58:52.136Z,17.30
2022-12-22T02:04:15.415Z,20.08
2022-12-22T02:09:52.003Z,22.55
2022-12-22T02:15:20.717Z,21.77
2022-12-22T02:20:57.261Z,20.10
2022-12-22T02:26:24.263Z,17.40
2022-12-22T02:37:21.339Z,23.15
2022-12-22T02:42:52.941Z,18.42
2022-12-22T02:48:21.704Z,18.48
2022-12-22T02:53:44.152Z,21.52
2022-12-22T02:59:05.096Z,19.63
2022-12-22T03:04:27.399Z,15.77
2022-12-22T03:09:48.513Z,19.42
2022-12-22T03:15:09.624Z,21.05
2022-12-22T03:20:32.332Z,25.30
2022-12-22T03:25:53.311Z,23.15
2022-12-22T03:31:01.912Z,22.45
2022-12-22T03:36:08.554Z,21.55
2022-12-22T03:41:33.113Z,25.17
2022-12-22T03:46:36.972Z,20.70
2022-12-22T03:51:44.258Z,23.73
2022-12-22T03:56:48.876Z,21.75
2022-12-22T04:01:54.038Z,21.67
2022-12-22T04:06:59.969Z,23.75
2022-12-22T04:12:20.952Z,23.50
2022-12-22T04:17:24.709Z,26.25
2022-12-22T04:22:29.943Z,21.27
2022-12-22T04:27:33.659Z,28.35
2022-12-22T04:32:37.582Z,19.20
2022-12-22T04:37:42.639Z,24.20
2022-12-22T04:42:46.368Z,22.77
2022-12-22T04:47:50.093Z,24.23
2022-12-22T04:52:55.285Z,23.00
2022-12-22T04:57:59.058Z,22.23
2022-12-22T05:03:02.866Z,24.85
2022-12-22T05:08:08.201Z,20.08
2022-12-22T05:13:11.895Z,21.83
2022-12-22T05:18:15.651Z,17.15
2022-12-22T05:23:20.706Z,19.52
2022-12-22T05:28:24.532Z,16.10
2022-12-22T05:33:28.267Z,16.20
2022-12-22T05:38:33.441Z,17.08
2022-12-22T05:43:38.063Z,20.60
2022-12-22T05:48:41.994Z,21.90
2022-12-22T05:53:47.022Z,26.77
2022-12-22T05:58:50.744Z,29.42
2022-12-22T06:03:59.757Z,29.58
2022-12-22T06:09:05.686Z,37.47
2022-12-22T06:14:09.479Z,33.70
2022-12-22T06:19:13.187Z,37.95
2022-12-22T06:24:18.252Z,39.50
2022-12-22T06:29:22.065Z,32.63
2022-12-22T06:34:26.102Z,39.55
2022-12-22T06:39:31.202Z,33.28
2022-12-22T06:44:34.931Z,47.65
2022-12-22T06:49:38.725Z,50.67
2022-12-22T06:54:44.039Z,52.53
2022-12-22T06:59:52.239Z,55.55
2022-12-22T07:04:59.098Z,53.75
2022-12-22T07:10:05.693Z,56.58
2022-12-22T07:15:10.751Z,57.88
2022-12-22T07:20:16.960Z,59.10
2022-12-22T07:25:22.141Z,55.97
2022-12-22T07:30:25.875Z,61.83
2022-12-22T07:35:29.578Z,54.05
2022-12-22T07:40:41.208Z,65.82
2022-12-22T07:45:45.394Z,45.40
2022-12-22T07:50:50.289Z,53.80
2022-12-22T07:55:55.480Z,54.28
2022-12-22T08:01:00.496Z,53.38
2022-12-22T08:06:06.037Z,56.72
2022-12-22T08:11:11.149Z,44.97
2022-12-22T08:16:15.870Z,46.58
2022-12-22T08:21:19.565Z,46.85
2022-12-22T08:26:29.528Z,50.13
2022-12-22T08:31:33.455Z,49.50
2022-12-22T08:36:41.821Z,43.13
2022-12-22T08:41:52.849Z,54.13
2022-12-22T08:46:58.842Z,52.85
2022-12-22T08:52:02.651Z,44.97
2022-12-22T08:57:07.829Z,57.95
2022-12-22T09:02:13.865Z,54.65
2022-12-22T09:07:18.481Z,44.78
2022-12-22T09:12:23.745Z,47.17
2022-12-22T09:17:27.540Z,47.05
2022-12-22T09:22:31.475Z,49.65
2022-12-22T09:27:36.575Z,51.20
2022-12-22T09:32:40.342Z,50.88
2022-12-22T09:37:44.023Z,43.72
2022-12-22T09:42:49.663Z,39.85
2022-12-22T09:47:55.446Z,40.95
2022-12-22T09:53:01.758Z,33.53
2022-12-22T09:58:24.058Z,30.80
2022-12-22T10:03:36.286Z,46.78
2022-12-22T10:08:41.856Z,32.78
2022-12-22T10:13:47.631Z,32.03
2022-12-22T10:19:07.101Z,35.80
2022-12-22T10:24:30.661Z,26.85
2022-12-22T10:29:36.351Z,34.78
2022-12-22T10:35:00.369Z,36.83
2022-12-22T10:40:16.118Z,35.80
2022-12-22T10:45:24.604Z,25.73
2022-12-22T10:50:28.468Z,28.80
2022-12-22T10:55:35.917Z,28.35
2022-12-22T11:00:41.671Z,29.80
2022-12-22T11:05:46.178Z,30.98
2022-12-22T11:10:54.637Z,39.42
2022-12-22T11:16:04.655Z,39.38
2022-12-22T11:21:22.015Z,45.00
2022-12-22T11:26:37.161Z,38.15
2022-12-22T11:31:56.845Z,37.38
2022-12-22T11:37:10.003Z,37.25
2022-12-22T11:42:35.189Z,41.67
2022-12-22T11:47:48.179Z,39.05
2022-12-22T11:53:05.738Z,33.88
2022-12-22T11:58:33.455Z,43.28
2022-12-22T12:03:58.015Z,38.75
2022-12-22T12:09:23.510Z,34.90
2022-12-22T12:14:37.296Z,40.42
2022-12-22T12:19:57.732Z,41.85
2022-12-22T12:25:03.125Z,42.53
2022-12-22T12:30:37.516Z,33.92
2022-12-22T12:35:50.929Z,40.30
2022-12-22T12:46:00.760Z,37.03
2022-12-22T12:51:44.502Z,38.47
2022-12-22T12:57:01.179Z,34.83
2022-12-22T13:02:05.225Z,34.90
2022-12-22T13:07:10.577Z,28.95
2022-12-22T13:12:40.044Z,32.17
2022-12-22T13:17:51.043Z,31.00
2022-12-22T13:22:59.328Z,26.52
2022-12-22T13:28:05.225Z,24.30
2022-12-22T13:33:12.473Z,23.98
2022-12-22T13:38:31.820Z,20.27
2022-12-22T13:43:36.490Z,19.63
2022-12-22T13:48:45.378Z,23.17
2022-12-22T13:54:12.660Z,18.88
2022-12-22T14:04:23.927Z,16.63
2022-12-22T14:09:29.550Z,15.40
2022-12-22T14:14:38.313Z,14.18
2022-12-22T14:19:42.063Z,18.77
2022-12-22T14:24:54.482Z,16.60
2022-12-22T14:30:02.187Z,15.20
2022-12-22T14:35:15.619Z,14.95
2022-12-22T14:40:32.560Z,14.60
2022-12-22T14:45:36.431Z,13.48
2022-12-22T14:50:49.306Z,13.15
2022-12-22T14:55:55.312Z,12.07
2022-12-22T15:01:16.197Z,13.10
2022-12-22T15:06:32.233Z,13.25
2022-12-22T15:11:38.315Z,10.82
2022-12-22T15:16:42.380Z,18.65
2022-12-22T15:21:46.246Z,13.23
2022-12-22T15:26:51.700Z,14.82
2022-12-22T15:31:55.494Z,13.88
2022-12-22T15:36:59.271Z,10.32
2022-12-22T15:42:12.516Z,13.18
2022-12-22T15:47:28.388Z,13.23
2022-12-22T15:52:33.058Z,12.25
2022-12-22T15:57:38.187Z,11.00
2022-12-22T16:02:42.315Z,8.20
2022-12-22T16:07:46.691Z,9.32
2022-12-22T16:13:00.162Z,9.57
2022-12-22T16:18:05.376Z,8.35
2022-12-22T16:23:14.579Z,9.40
2022-12-22T16:28:22.766Z,9.80
2022-12-22T16:33:26.584Z,8.95
2022-12-22T16:38:30.448Z,9.35
2022-12-22T16:43:49.081Z,11.75
2022-12-22T16:48:55.334Z,9.57
2022-12-22T16:53:59.108Z,20.53
2022-12-22T16:59:04.677Z,12.50
2022-12-22T17:04:10.889Z,17.10
2022-12-22T17:09:18.153Z,15.40
2022-12-22T17:19:31.999Z,17.00
2022-12-22T17:24:35.841Z,17.73
2022-12-22T17:29:41.159Z,21.63
2022-12-22T17:34:45.070Z,20.13
2022-12-22T17:39:52.303Z,17.13
2022-12-22T17:44:57.531Z,25.58
2022-12-22T17:50:02.923Z,19.25
2022-12-22T17:55:09.010Z,20.88
2022-12-22T18:00:20.300Z,15.65
2022-12-22T18:05:27.070Z,23.30
2022-12-22T18:10:33.489Z,18.63
2022-12-22T18:15:39.983Z,19.47
2022-12-22T18:20:45.223Z,26.33
2022-12-22T18:25:49.090Z,25.75
2022-12-22T18:30:54.304Z,31.58
2022-12-22T18:36:00.271Z,27.52
2022-12-22T18:41:04.253Z,30.70
2022-12-22T18:46:12.979Z,36.55
2022-12-22T18:51:20.590Z,17.45
2022-12-22T18:56:24.447Z,26.60
2022-12-22T19:01:29.681Z,20.10
2022-12-22T19:06:33.511Z,25.90
2022-12-22T19:11:37.613Z,20.85
2022-12-22T19:16:42.788Z,34.05
2022-12-22T19:21:46.759Z,23.67
2022-12-22T19:26:50.551Z,24.75
2022-12-22T19:31:56.107Z,24.33
2022-12-22T19:36:59.976Z,34.67
2022-12-22T19:42:03.812Z,25.30
2022-12-22T19:47:17.715Z,30.30
2022-12-22T19:52:21.814Z,26.17
2022-12-22T19:57:25.625Z,18.83
2022-12-22T20:02:33.676Z,26.98
2022-12-22T20:07:37.591Z,32.00
2022-12-22T20:12:45.227Z,32.65
2022-12-22T20:17:51.634Z,22.77
2022-12-22T20:22:57.635Z,26.73
2022-12-22T20:28:01.557Z,21.75
2022-12-22T20:33:06.702Z,33.05
2022-12-22T20:38:15.051Z,24.88
2022-12-22T20:43:21.697Z,26.45
2022-12-22T20:48:34.084Z,30.15
2022-12-22T20:53:45.784Z,26.10
2022-12-22T20:59:02.759Z,20.90
2022-12-22T21:04:08.261Z,24.73
2022-12-22T21:09:14.022Z,30.63
2022-12-22T21:14:18.248Z,23.08
2022-12-22T21:19:23.869Z,24.15
2022-12-22T21:24:29.410Z,21.85
2022-12-22T21:29:33.760Z,15.40
2022-12-22T21:34:42.083Z,26.52
2022-12-22T21:39:46.184Z,20.65
2022-12-22T21:44:55.023Z,26.48
2022-12-22T21:50:00.890Z,25.85
2022-12-22T21:55:07.629Z,26.00
2022-12-22T22:00:14.158Z,18.67
2022-12-22T22:05:31.959Z,21.57
2022-12-22T22:10:40.684Z,19.13
2022-12-22T22:15:45.891Z,19.55
2022-12-22T22:20:51.799Z,30.77
2022-12-22T22:25:58.881Z,23.35
2022-12-22T22:31:03.574Z,24.25
2022-12-22T22:36:10.465Z,20.30
2022-12-22T22:41:14.379Z,22.83
2022-12-22T22:46:18.061Z,33.38
2022-12-22T22:51:30.924Z,25.85
2022-12-22T22:56:35.479Z,21.02
2022-12-22T23:01:40.385Z,23.05
2022-12-22T23:06:45.552Z,22.90
2022-12-22T23:11:51.468Z,30.35
2022-12-22T23:16:55.245Z,32.05
2022-12-22T23:22:00.514Z,22.85
2022-12-22T23:27:04.457Z,21.08
2022-12-22T23:32:08.321Z,22.35
2022-12-22T23:37:18.983Z,26.30
2022-12-22T23:42:23.429Z,24.45
2022-12-22T23:47:27.123Z,22.48
2022-12-22T23:52:32.186Z,22.83
2022-12-22T23:57:35.877Z,24.92
